IGO0833 VECC-VOMM
Flight info
| Callsign | IGO0833 |
|---|---|
| Flight time | N/A |
| Altitude | 33000 |
| Route | CEA W111 VETED DCT KAKID/N0472F340 A465 MMV |
| Aircraft | A21N/M-SDE2E3FGHIRWXY/LB1 |
Departure
| Time | 2026-05-09 04:43 |
|---|---|
| Airport | Netaji Subhash Chandra Bose International Airport (VECC) |
Arrival
| Time | N/A |
|---|---|
| Airport | Chennai International Airport (VOMM) |
| Time | Latitude | Longitude | Altitude | Speed | Heading |
|---|---|---|---|---|---|
| 2026-05-09 04:24 | 22.64343 | 88.44066 | 29 ft | 0 kts | 276° |
| 2026-05-09 04:29 | 22.64342 | 88.44074 | 29 ft | 4 kts | 276° |
| 2026-05-09 04:30 | 22.64338 | 88.44103 | 29 ft | 4 kts | 276° |
| 2026-05-09 04:30 | 22.64337 | 88.44119 | 29 ft | 3 kts | 277° |
| 2026-05-09 04:30 | 22.64329 | 88.44143 | 29 ft | 4 kts | 324° |
| 2026-05-09 04:30 | 22.64306 | 88.44149 | 29 ft | 4 kts | 4° |
| 2026-05-09 04:31 | 22.64294 | 88.44148 | 29 ft | 1 kts | 6° |
| 2026-05-09 04:33 | 22.64296 | 88.44148 | 29 ft | 1 kts | 6° |
| 2026-05-09 04:33 | 22.64315 | 88.44150 | 29 ft | 4 kts | 5° |
| 2026-05-09 04:33 | 22.64358 | 88.44155 | 29 ft | 8 kts | 6° |
| 2026-05-09 04:34 | 22.64421 | 88.44163 | 29 ft | 11 kts | 6° |
| 2026-05-09 04:34 | 22.64503 | 88.44173 | 29 ft | 13 kts | 6° |
| 2026-05-09 04:34 | 22.64595 | 88.44183 | 29 ft | 14 kts | 6° |
| 2026-05-09 04:34 | 22.64694 | 88.44195 | 29 ft | 15 kts | 5° |
| 2026-05-09 04:35 | 22.64802 | 88.44207 | 29 ft | 16 kts | 6° |
| 2026-05-09 04:35 | 22.64916 | 88.44221 | 29 ft | 17 kts | 6° |
| 2026-05-09 04:35 | 22.65037 | 88.44238 | 29 ft | 18 kts | 31° |
| 2026-05-09 04:35 | 22.65099 | 88.44332 | 29 ft | 16 kts | 23° |
| 2026-05-09 04:36 | 22.65183 | 88.44344 | 29 ft | 13 kts | 5° |
| 2026-05-09 04:36 | 22.65276 | 88.44355 | 29 ft | 14 kts | 6° |
| 2026-05-09 04:36 | 22.65380 | 88.44367 | 29 ft | 16 kts | 6° |
| 2026-05-09 04:36 | 22.65493 | 88.44379 | 29 ft | 17 kts | 5° |
| 2026-05-09 04:37 | 22.65616 | 88.44393 | 29 ft | 18 kts | 6° |
| 2026-05-09 04:37 | 22.65746 | 88.44408 | 29 ft | 19 kts | 6° |
| 2026-05-09 04:37 | 22.65884 | 88.44424 | 29 ft | 20 kts | 12° |
| 2026-05-09 04:37 | 22.66025 | 88.44460 | 29 ft | 21 kts | 5° |
| 2026-05-09 04:38 | 22.66175 | 88.44478 | 29 ft | 22 kts | 7° |
| 2026-05-09 04:38 | 22.66330 | 88.44496 | 29 ft | 23 kts | 5° |
| 2026-05-09 04:38 | 22.66468 | 88.44512 | 29 ft | 19 kts | 6° |
| 2026-05-09 04:38 | 22.66603 | 88.44535 | 28 ft | 20 kts | 12° |
| 2026-05-09 04:39 | 22.66745 | 88.44568 | 29 ft | 21 kts | 9° |
| 2026-05-09 04:39 | 22.66894 | 88.44586 | 29 ft | 22 kts | 6° |
| 2026-05-09 04:39 | 22.67048 | 88.44604 | 29 ft | 23 kts | 6° |
| 2026-05-09 04:39 | 22.67129 | 88.44613 | 29 ft | 5 kts | 4° |
| 2026-05-09 04:40 | 22.67170 | 88.44618 | 29 ft | 7 kts | 7° |
| 2026-05-09 04:40 | 22.67221 | 88.44626 | 29 ft | 8 kts | 11° |
| 2026-05-09 04:40 | 22.67265 | 88.44667 | 29 ft | 10 kts | 61° |
| 2026-05-09 04:40 | 22.67300 | 88.44735 | 29 ft | 11 kts | 62° |
| 2026-05-09 04:41 | 22.67335 | 88.44815 | 30 ft | 11 kts | 88° |
| 2026-05-09 04:41 | 22.67331 | 88.44904 | 33 ft | 13 kts | 95° |
| 2026-05-09 04:41 | 22.67301 | 88.44989 | 35 ft | 6 kts | 169° |
| 2026-05-09 04:41 | 22.67258 | 88.44990 | 35 ft | 6 kts | 184° |
| 2026-05-09 04:42 | 22.67235 | 88.44987 | 34 ft | 0 kts | 186° |
| 2026-05-09 04:42 | 22.67230 | 88.44987 | 34 ft | 6 kts | 186° |
| 2026-05-09 04:42 | 22.67000 | 88.44962 | 33 ft | 68 kts | 187° |
| 2026-05-09 04:42 | 22.66300 | 88.44878 | 31 ft | 129 kts | 185° |
| 2026-05-09 04:43 | 22.65234 | 88.44755 | 60 ft | 172 kts | 181° |
| 2026-05-09 04:43 | 22.64033 | 88.44601 | 545 ft | 175 kts | 185° |
| 2026-05-09 04:43 | 22.62852 | 88.44434 | 1084 ft | 175 kts | 186° |
| 2026-05-09 04:43 | 22.61609 | 88.44277 | 1455 ft | 188 kts | 186° |
| 2026-05-09 04:44 | 22.60227 | 88.44127 | 1831 ft | 206 kts | 179° |
| 2026-05-09 04:44 | 22.58745 | 88.44308 | 2129 ft | 230 kts | 170° |
| 2026-05-09 04:44 | 22.57082 | 88.44606 | 2493 ft | 252 kts | 170° |
| 2026-05-09 04:44 | 22.55291 | 88.44782 | 3060 ft | 262 kts | 175° |
| 2026-05-09 04:45 | 22.53460 | 88.44896 | 3814 ft | 265 kts | 176° |
| 2026-05-09 04:45 | 22.51604 | 88.45012 | 4557 ft | 268 kts | 176° |
| 2026-05-09 04:45 | 22.49703 | 88.45137 | 5250 ft | 272 kts | 177° |
| 2026-05-09 04:45 | 22.47830 | 88.45262 | 5931 ft | 275 kts | 177° |
| 2026-05-09 04:46 | 22.45901 | 88.45393 | 6601 ft | 279 kts | 178° |
| 2026-05-09 04:46 | 22.43946 | 88.45526 | 7259 ft | 283 kts | 178° |
| 2026-05-09 04:46 | 22.41974 | 88.45662 | 7940 ft | 286 kts | 178° |
| 2026-05-09 04:46 | 22.39982 | 88.45800 | 8629 ft | 289 kts | 178° |
| 2026-05-09 04:47 | 22.37958 | 88.45938 | 9335 ft | 292 kts | 178° |
| 2026-05-09 04:47 | 22.35923 | 88.46079 | 10018 ft | 296 kts | 178° |
| 2026-05-09 04:47 | 22.33812 | 88.46224 | 10384 ft | 312 kts | 178° |
| 2026-05-09 04:47 | 22.31586 | 88.46375 | 10659 ft | 330 kts | 178° |
| 2026-05-09 04:48 | 22.29235 | 88.46537 | 10907 ft | 348 kts | 178° |
| 2026-05-09 04:48 | 22.26756 | 88.46707 | 11147 ft | 365 kts | 178° |
| 2026-05-09 04:48 | 22.24171 | 88.46885 | 11370 ft | 380 kts | 178° |
| 2026-05-09 04:48 | 22.21490 | 88.47070 | 11673 ft | 391 kts | 178° |
| 2026-05-09 04:49 | 22.18759 | 88.47260 | 12160 ft | 396 kts | 178° |
| 2026-05-09 04:49 | 22.15996 | 88.47450 | 12721 ft | 398 kts | 178° |
| 2026-05-09 04:49 | 22.13221 | 88.47642 | 13295 ft | 399 kts | 178° |
| 2026-05-09 04:49 | 22.10447 | 88.47832 | 13801 ft | 402 kts | 178° |
| 2026-05-09 04:50 | 22.07639 | 88.48026 | 14231 ft | 404 kts | 178° |
| 2026-05-09 04:50 | 22.04826 | 88.48218 | 14647 ft | 407 kts | 178° |
| 2026-05-09 04:50 | 22.01990 | 88.48414 | 15066 ft | 409 kts | 178° |
| 2026-05-09 04:50 | 21.99141 | 88.48609 | 15480 ft | 411 kts | 178° |
| 2026-05-09 04:51 | 21.96280 | 88.48806 | 15871 ft | 414 kts | 178° |
| 2026-05-09 04:51 | 21.93396 | 88.49004 | 16265 ft | 416 kts | 178° |
| 2026-05-09 04:51 | 21.90503 | 88.49203 | 16656 ft | 418 kts | 178° |
| 2026-05-09 04:51 | 21.87587 | 88.49402 | 17045 ft | 420 kts | 178° |
| 2026-05-09 04:52 | 21.84660 | 88.49604 | 17423 ft | 422 kts | 178° |
| 2026-05-09 04:52 | 21.81721 | 88.49806 | 17794 ft | 425 kts | 178° |
| 2026-05-09 04:52 | 21.78767 | 88.50009 | 18153 ft | 427 kts | 178° |
| 2026-05-09 04:52 | 21.75798 | 88.50212 | 18480 ft | 429 kts | 179° |
| 2026-05-09 04:53 | 21.72815 | 88.50416 | 18818 ft | 430 kts | 179° |
| 2026-05-09 04:53 | 21.69821 | 88.50622 | 19158 ft | 431 kts | 179° |
| 2026-05-09 04:53 | 21.66825 | 88.50828 | 19493 ft | 433 kts | 179° |
| 2026-05-09 04:53 | 21.63811 | 88.51033 | 19825 ft | 434 kts | 179° |
| 2026-05-09 04:54 | 21.60790 | 88.51240 | 20172 ft | 436 kts | 180° |
| 2026-05-09 04:54 | 21.57753 | 88.51447 | 20523 ft | 437 kts | 180° |
| 2026-05-09 04:54 | 21.54721 | 88.51655 | 20864 ft | 438 kts | 180° |
| 2026-05-09 04:54 | 21.51669 | 88.51863 | 21222 ft | 440 kts | 180° |
| 2026-05-09 04:55 | 21.48611 | 88.52072 | 21584 ft | 442 kts | 180° |
| 2026-05-09 04:55 | 21.45542 | 88.52281 | 21942 ft | 443 kts | 181° |
| 2026-05-09 04:55 | 21.42461 | 88.52359 | 22363 ft | 439 kts | 187° |
| 2026-05-09 04:55 | 21.39464 | 88.51898 | 22751 ft | 433 kts | 197° |
| 2026-05-09 04:56 | 21.36636 | 88.50832 | 23086 ft | 429 kts | 208° |
| 2026-05-09 04:56 | 21.34087 | 88.49201 | 23407 ft | 426 kts | 219° |
| 2026-05-09 04:56 | 21.31886 | 88.47091 | 23674 ft | 425 kts | 229° |
| 2026-05-09 04:56 | 21.30091 | 88.44577 | 23882 ft | 426 kts | 238° |
| 2026-05-09 04:57 | 21.28713 | 88.41771 | 24072 ft | 428 kts | 244° |
| 2026-05-09 04:57 | 21.27445 | 88.38876 | 24290 ft | 429 kts | 244° |
| 2026-05-09 04:57 | 21.26174 | 88.35974 | 24502 ft | 431 kts | 244° |
| 2026-05-09 04:57 | 21.24884 | 88.33067 | 24716 ft | 432 kts | 244° |
| 2026-05-09 04:58 | 21.23586 | 88.30163 | 24921 ft | 433 kts | 244° |
| 2026-05-09 04:58 | 21.22282 | 88.27258 | 25123 ft | 433 kts | 244° |
| 2026-05-09 04:58 | 21.20974 | 88.24344 | 25301 ft | 434 kts | 244° |
| 2026-05-09 04:58 | 21.19660 | 88.21422 | 25531 ft | 434 kts | 244° |
| 2026-05-09 04:59 | 21.18346 | 88.18509 | 25774 ft | 433 kts | 244° |
| 2026-05-09 04:59 | 21.17037 | 88.15608 | 26028 ft | 432 kts | 243° |
| 2026-05-09 04:59 | 21.15726 | 88.12710 | 26274 ft | 431 kts | 243° |
| 2026-05-09 04:59 | 21.14428 | 88.09830 | 26520 ft | 430 kts | 244° |
| 2026-05-09 05:00 | 21.13125 | 88.06944 | 26756 ft | 429 kts | 243° |
| 2026-05-09 05:00 | 21.11822 | 88.04068 | 26950 ft | 429 kts | 243° |
| 2026-05-09 05:00 | 21.10539 | 88.01224 | 27166 ft | 429 kts | 244° |
| 2026-05-09 05:00 | 21.09247 | 87.98353 | 27384 ft | 428 kts | 243° |
| 2026-05-09 05:01 | 21.07954 | 87.95492 | 27602 ft | 427 kts | 243° |
| 2026-05-09 05:01 | 21.06662 | 87.92629 | 27818 ft | 426 kts | 243° |
| 2026-05-09 05:01 | 21.05368 | 87.89770 | 28026 ft | 426 kts | 243° |
| 2026-05-09 05:01 | 21.04078 | 87.86919 | 28239 ft | 425 kts | 243° |
| 2026-05-09 05:02 | 21.02789 | 87.84077 | 28445 ft | 424 kts | 243° |
| 2026-05-09 05:02 | 21.01501 | 87.81238 | 28656 ft | 424 kts | 243° |
| 2026-05-09 05:02 | 21.00214 | 87.78406 | 28870 ft | 423 kts | 243° |
| 2026-05-09 05:02 | 20.98931 | 87.75583 | 29087 ft | 422 kts | 243° |
| 2026-05-09 05:03 | 20.97648 | 87.72758 | 29296 ft | 421 kts | 243° |
| 2026-05-09 05:03 | 20.96371 | 87.69949 | 29520 ft | 420 kts | 243° |
| 2026-05-09 05:03 | 20.95093 | 87.67135 | 29758 ft | 419 kts | 243° |
| 2026-05-09 05:03 | 20.93821 | 87.64343 | 29991 ft | 417 kts | 243° |
| 2026-05-09 05:04 | 20.92550 | 87.61554 | 30167 ft | 416 kts | 243° |
| 2026-05-09 05:04 | 20.91285 | 87.58774 | 30330 ft | 416 kts | 243° |
| 2026-05-09 05:04 | 20.90017 | 87.55990 | 30496 ft | 416 kts | 243° |
| 2026-05-09 05:04 | 20.88753 | 87.53217 | 30656 ft | 415 kts | 243° |
| 2026-05-09 05:05 | 20.87484 | 87.50439 | 30814 ft | 415 kts | 243° |
| 2026-05-09 05:05 | 20.86220 | 87.47676 | 30977 ft | 414 kts | 243° |
| 2026-05-09 05:05 | 20.84958 | 87.44912 | 31140 ft | 414 kts | 243° |
| 2026-05-09 05:05 | 20.83694 | 87.42147 | 31297 ft | 414 kts | 243° |
| 2026-05-09 05:06 | 20.82430 | 87.39382 | 31453 ft | 413 kts | 243° |
| 2026-05-09 05:06 | 20.81170 | 87.36627 | 31613 ft | 413 kts | 243° |
| 2026-05-09 05:06 | 20.79906 | 87.33866 | 31777 ft | 413 kts | 243° |
| 2026-05-09 05:06 | 20.78647 | 87.31116 | 31958 ft | 412 kts | 243° |
| 2026-05-09 05:07 | 20.77389 | 87.28368 | 32070 ft | 412 kts | 243° |
| 2026-05-09 05:07 | 20.76126 | 87.25611 | 32187 ft | 413 kts | 243° |
| 2026-05-09 05:07 | 20.74866 | 87.22862 | 32322 ft | 413 kts | 243° |
| 2026-05-09 05:07 | 20.73594 | 87.20095 | 32473 ft | 413 kts | 244° |
| 2026-05-09 05:08 | 20.72330 | 87.17341 | 32617 ft | 413 kts | 244° |
| 2026-05-09 05:08 | 20.71066 | 87.14588 | 32771 ft | 413 kts | 244° |
| 2026-05-09 05:08 | 20.69802 | 87.11835 | 32919 ft | 412 kts | 244° |
| 2026-05-09 05:08 | 20.68521 | 87.09050 | 33055 ft | 412 kts | 244° |
| 2026-05-09 05:09 | 20.67277 | 87.06344 | 33190 ft | 412 kts | 244° |
| 2026-05-09 05:09 | 20.66014 | 87.03598 | 33327 ft | 411 kts | 244° |
| 2026-05-09 05:09 | 20.64692 | 87.00854 | 33448 ft | 411 kts | 240° |
| 2026-05-09 05:09 | 20.63065 | 86.98389 | 33555 ft | 412 kts | 231° |
| 2026-05-09 05:10 | 20.61140 | 86.96114 | 33684 ft | 413 kts | 229° |
| 2026-05-09 05:10 | 20.59173 | 86.93889 | 33804 ft | 412 kts | 229° |
| 2026-05-09 05:10 | 20.57202 | 86.91662 | 33912 ft | 412 kts | 229° |
| 2026-05-09 05:10 | 20.55220 | 86.89408 | 34016 ft | 412 kts | 229° |
| 2026-05-09 05:11 | 20.53287 | 86.87203 | 34104 ft | 412 kts | 229° |
| 2026-05-09 05:11 | 20.49384 | 86.82735 | 34288 ft | 411 kts | 229° |
| 2026-05-09 05:12 | 20.45486 | 86.78277 | 34480 ft | 411 kts | 229° |
| 2026-05-09 05:12 | 20.42218 | 86.74544 | 34594 ft | 411 kts | 229° |
| 2026-05-09 05:13 | 20.38312 | 86.70088 | 34736 ft | 411 kts | 229° |
| 2026-05-09 05:13 | 20.34412 | 86.65640 | 34900 ft | 411 kts | 229° |
| 2026-05-09 05:14 | 20.30496 | 86.61181 | 34915 ft | 411 kts | 229° |
| 2026-05-09 05:14 | 20.26614 | 86.56756 | 34899 ft | 412 kts | 229° |
| 2026-05-09 05:15 | 20.22698 | 86.52301 | 34903 ft | 412 kts | 229° |
| 2026-05-09 05:15 | 20.18760 | 86.47827 | 34891 ft | 412 kts | 229° |
| 2026-05-09 05:16 | 20.14847 | 86.43379 | 34895 ft | 412 kts | 229° |
| 2026-05-09 05:16 | 20.10958 | 86.38963 | 34896 ft | 411 kts | 229° |
| 2026-05-09 05:17 | 20.07039 | 86.34513 | 34883 ft | 414 kts | 229° |
| 2026-05-09 05:17 | 20.03132 | 86.29998 | 34893 ft | 412 kts | 230° |
| 2026-05-09 05:18 | 19.99283 | 86.25468 | 34894 ft | 415 kts | 230° |
| 2026-05-09 05:18 | 19.95428 | 86.20933 | 34891 ft | 413 kts | 230° |
| 2026-05-09 05:19 | 19.91559 | 86.16387 | 34889 ft | 413 kts | 230° |
| 2026-05-09 05:19 | 19.87644 | 86.11888 | 34898 ft | 416 kts | 229° |
| 2026-05-09 05:20 | 19.83701 | 86.07439 | 34890 ft | 414 kts | 229° |
| 2026-05-09 05:20 | 19.79747 | 86.02964 | 34891 ft | 414 kts | 229° |
| 2026-05-09 05:21 | 19.75804 | 85.98497 | 34894 ft | 416 kts | 229° |
| 2026-05-09 05:21 | 19.71857 | 85.94033 | 34895 ft | 416 kts | 229° |
| 2026-05-09 05:22 | 19.67901 | 85.89559 | 34896 ft | 414 kts | 229° |
| 2026-05-09 05:22 | 19.63941 | 85.85084 | 34895 ft | 415 kts | 229° |
| 2026-05-09 05:23 | 19.59981 | 85.80615 | 34896 ft | 417 kts | 229° |
| 2026-05-09 05:23 | 19.56021 | 85.76148 | 34895 ft | 415 kts | 229° |
| 2026-05-09 05:24 | 19.52060 | 85.71679 | 34899 ft | 415 kts | 229° |
| 2026-05-09 05:24 | 19.48104 | 85.67224 | 34898 ft | 417 kts | 229° |
| 2026-05-09 05:25 | 19.44140 | 85.62767 | 34897 ft | 415 kts | 229° |
| 2026-05-09 05:25 | 19.38184 | 85.56073 | 34892 ft | 417 kts | 228° |
| 2026-05-09 05:26 | 19.34204 | 85.51599 | 34894 ft | 415 kts | 228° |
| 2026-05-09 05:26 | 19.30249 | 85.47158 | 34897 ft | 418 kts | 228° |
| 2026-05-09 05:27 | 19.26247 | 85.42670 | 34896 ft | 416 kts | 228° |
| 2026-05-09 05:27 | 19.22283 | 85.38224 | 34897 ft | 417 kts | 229° |
| 2026-05-09 05:28 | 19.18305 | 85.33765 | 34898 ft | 419 kts | 229° |
| 2026-05-09 05:28 | 19.14314 | 85.29299 | 34896 ft | 417 kts | 229° |
| 2026-05-09 05:29 | 19.10481 | 85.24680 | 34894 ft | 417 kts | 233° |
| 2026-05-09 05:29 | 19.06989 | 85.19813 | 34894 ft | 417 kts | 234° |
| 2026-05-09 05:30 | 19.03512 | 85.14901 | 34892 ft | 417 kts | 234° |
| 2026-05-09 05:30 | 19.00026 | 85.09988 | 34899 ft | 416 kts | 234° |
| 2026-05-09 05:31 | 18.96543 | 85.05086 | 34899 ft | 419 kts | 234° |
| 2026-05-09 05:31 | 18.93058 | 85.00188 | 34897 ft | 418 kts | 234° |
| 2026-05-09 05:32 | 18.89557 | 84.95273 | 34896 ft | 417 kts | 234° |
| 2026-05-09 05:32 | 18.86058 | 84.90368 | 34896 ft | 418 kts | 234° |
| 2026-05-09 05:33 | 18.82566 | 84.85470 | 34897 ft | 419 kts | 234° |
| 2026-05-09 05:33 | 18.79069 | 84.80566 | 34896 ft | 417 kts | 234° |
| 2026-05-09 05:34 | 18.75562 | 84.75658 | 34896 ft | 418 kts | 234° |
| 2026-05-09 05:34 | 18.72056 | 84.70752 | 34898 ft | 420 kts | 234° |
| 2026-05-09 05:35 | 18.68552 | 84.65853 | 34896 ft | 419 kts | 234° |
| 2026-05-09 05:35 | 18.65051 | 84.60962 | 34897 ft | 420 kts | 234° |
| 2026-05-09 05:36 | 18.61541 | 84.56055 | 34897 ft | 421 kts | 234° |
| 2026-05-09 05:36 | 18.58015 | 84.51134 | 34895 ft | 419 kts | 234° |
| 2026-05-09 05:37 | 18.54488 | 84.46219 | 34896 ft | 419 kts | 234° |
| 2026-05-09 05:37 | 18.50960 | 84.41306 | 34898 ft | 422 kts | 234° |
| 2026-05-09 05:38 | 18.47431 | 84.36400 | 34898 ft | 420 kts | 234° |
| 2026-05-09 05:38 | 18.43902 | 84.31496 | 34898 ft | 418 kts | 234° |
| 2026-05-09 05:39 | 18.40372 | 84.26585 | 34900 ft | 423 kts | 234° |
| 2026-05-09 05:39 | 18.36820 | 84.21653 | 34898 ft | 421 kts | 234° |
| 2026-05-09 05:40 | 18.33264 | 84.16718 | 34890 ft | 424 kts | 234° |
| 2026-05-09 05:40 | 18.29715 | 84.11799 | 34892 ft | 423 kts | 234° |
| 2026-05-09 05:41 | 18.26157 | 84.06871 | 34893 ft | 421 kts | 234° |
| 2026-05-09 05:41 | 18.22602 | 84.01948 | 34899 ft | 423 kts | 234° |
| 2026-05-09 05:42 | 18.19043 | 83.97029 | 34899 ft | 424 kts | 234° |
| 2026-05-09 05:42 | 18.15479 | 83.92102 | 34896 ft | 422 kts | 234° |
| 2026-05-09 05:43 | 18.11907 | 83.87166 | 34900 ft | 426 kts | 234° |
| 2026-05-09 05:43 | 18.08335 | 83.82237 | 34900 ft | 425 kts | 234° |
| 2026-05-09 05:44 | 18.04755 | 83.77298 | 34894 ft | 423 kts | 234° |
| 2026-05-09 05:44 | 18.01175 | 83.72368 | 34900 ft | 424 kts | 234° |
| 2026-05-09 05:45 | 17.97593 | 83.67437 | 34889 ft | 426 kts | 233° |
| 2026-05-09 05:45 | 17.93991 | 83.62485 | 34895 ft | 424 kts | 233° |
| 2026-05-09 05:46 | 17.90401 | 83.57547 | 34893 ft | 427 kts | 233° |
| 2026-05-09 05:46 | 17.86806 | 83.52607 | 34895 ft | 427 kts | 234° |
| 2026-05-09 05:47 | 17.83191 | 83.47642 | 34891 ft | 427 kts | 234° |
| 2026-05-09 05:47 | 17.79576 | 83.42685 | 34899 ft | 429 kts | 234° |
| 2026-05-09 05:48 | 17.75986 | 83.37764 | 34900 ft | 428 kts | 233° |
| 2026-05-09 05:48 | 17.72365 | 83.32807 | 34900 ft | 426 kts | 233° |
| 2026-05-09 05:49 | 17.68717 | 83.27821 | 34904 ft | 428 kts | 233° |
| 2026-05-09 05:49 | 17.64386 | 83.23542 | 34909 ft | 434 kts | 217° |
| 2026-05-09 05:50 | 17.59358 | 83.20161 | 34898 ft | 433 kts | 214° |
| 2026-05-09 05:50 | 17.54269 | 83.16761 | 34885 ft | 431 kts | 215° |
| 2026-05-09 05:51 | 17.49200 | 83.13339 | 34882 ft | 435 kts | 215° |
| 2026-05-09 05:51 | 17.44118 | 83.09907 | 34886 ft | 434 kts | 215° |
| 2026-05-09 05:52 | 17.39040 | 83.06486 | 34880 ft | 433 kts | 215° |
| 2026-05-09 05:52 | 17.33964 | 83.03057 | 34886 ft | 435 kts | 215° |
| 2026-05-09 05:53 | 17.28884 | 82.99634 | 34881 ft | 436 kts | 215° |
| 2026-05-09 05:53 | 17.23794 | 82.96206 | 34878 ft | 434 kts | 215° |
| 2026-05-09 05:54 | 17.18711 | 82.92785 | 34890 ft | 433 kts | 215° |
| 2026-05-09 05:54 | 17.13620 | 82.89361 | 34888 ft | 436 kts | 215° |
| 2026-05-09 05:55 | 17.09397 | 82.86524 | 34886 ft | 435 kts | 215° |
| 2026-05-09 05:55 | 17.03462 | 82.82535 | 34887 ft | 434 kts | 215° |
| 2026-05-09 05:56 | 16.99232 | 82.79697 | 34887 ft | 433 kts | 215° |
| 2026-05-09 05:56 | 16.94151 | 82.76287 | 34888 ft | 436 kts | 215° |
| 2026-05-09 05:57 | 16.89046 | 82.72866 | 34884 ft | 435 kts | 214° |
| 2026-05-09 05:57 | 16.83934 | 82.69438 | 34884 ft | 435 kts | 214° |
| 2026-05-09 05:58 | 16.78009 | 82.65474 | 34879 ft | 436 kts | 214° |
| 2026-05-09 05:58 | 16.73721 | 82.62609 | 34882 ft | 437 kts | 214° |
| 2026-05-09 05:59 | 16.68610 | 82.59204 | 34882 ft | 436 kts | 214° |
| 2026-05-09 05:59 | 16.63491 | 82.55797 | 34888 ft | 435 kts | 214° |
| 2026-05-09 06:00 | 16.58378 | 82.52393 | 34879 ft | 435 kts | 214° |
| 2026-05-09 06:00 | 16.53272 | 82.48995 | 34885 ft | 438 kts | 214° |
| 2026-05-09 06:01 | 16.48165 | 82.45601 | 34872 ft | 437 kts | 214° |
| 2026-05-09 06:01 | 16.43031 | 82.42193 | 34882 ft | 436 kts | 214° |
| 2026-05-09 06:02 | 16.37861 | 82.38759 | 34876 ft | 439 kts | 214° |
| 2026-05-09 06:02 | 16.32725 | 82.35353 | 34883 ft | 439 kts | 214° |
| 2026-05-09 06:03 | 16.27610 | 82.31961 | 34880 ft | 437 kts | 214° |
| 2026-05-09 06:03 | 16.22460 | 82.28549 | 34884 ft | 438 kts | 214° |
| 2026-05-09 06:04 | 16.17317 | 82.25141 | 34882 ft | 440 kts | 213° |
| 2026-05-09 06:04 | 16.12156 | 82.21727 | 34880 ft | 439 kts | 213° |
| 2026-05-09 06:05 | 16.06991 | 82.18312 | 34880 ft | 438 kts | 213° |
| 2026-05-09 06:05 | 16.01828 | 82.14900 | 34878 ft | 440 kts | 213° |
| 2026-05-09 06:06 | 15.96666 | 82.11490 | 34884 ft | 441 kts | 213° |
| 2026-05-09 06:06 | 15.91501 | 82.08082 | 34876 ft | 440 kts | 213° |
| 2026-05-09 06:07 | 15.86338 | 82.04675 | 34879 ft | 438 kts | 213° |
| 2026-05-09 06:07 | 15.81187 | 82.01230 | 34881 ft | 442 kts | 214° |
| 2026-05-09 06:08 | 15.76052 | 81.97760 | 34882 ft | 441 kts | 214° |
| 2026-05-09 06:08 | 15.70910 | 81.94295 | 34879 ft | 440 kts | 214° |
| 2026-05-09 06:09 | 15.65763 | 81.90825 | 34883 ft | 440 kts | 214° |
| 2026-05-09 06:09 | 15.60616 | 81.87353 | 34880 ft | 441 kts | 214° |
| 2026-05-09 06:10 | 15.55503 | 81.83868 | 34876 ft | 442 kts | 216° |
| 2026-05-09 06:10 | 15.50619 | 81.80034 | 34878 ft | 440 kts | 218° |
| 2026-05-09 06:11 | 15.45738 | 81.76157 | 34878 ft | 443 kts | 218° |
| 2026-05-09 06:11 | 15.40845 | 81.72279 | 34878 ft | 442 kts | 218° |
| 2026-05-09 06:12 | 15.35945 | 81.68397 | 34878 ft | 442 kts | 218° |
| 2026-05-09 06:12 | 15.31054 | 81.64522 | 34883 ft | 444 kts | 218° |
| 2026-05-09 06:13 | 15.26165 | 81.60656 | 34879 ft | 444 kts | 217° |
| 2026-05-09 06:13 | 15.21252 | 81.56791 | 34878 ft | 443 kts | 217° |
| 2026-05-09 06:14 | 15.16350 | 81.52932 | 34878 ft | 441 kts | 217° |
| 2026-05-09 06:14 | 15.11456 | 81.49064 | 34882 ft | 442 kts | 218° |
| 2026-05-09 06:15 | 15.06556 | 81.45190 | 34883 ft | 444 kts | 218° |
| 2026-05-09 06:15 | 15.01665 | 81.41328 | 34883 ft | 444 kts | 218° |
| 2026-05-09 06:16 | 14.96759 | 81.37465 | 34881 ft | 442 kts | 217° |
| 2026-05-09 06:16 | 14.91859 | 81.33605 | 34881 ft | 441 kts | 217° |
| 2026-05-09 06:17 | 14.86948 | 81.29749 | 34883 ft | 443 kts | 217° |
| 2026-05-09 06:17 | 14.82047 | 81.25903 | 34883 ft | 443 kts | 217° |
| 2026-05-09 06:18 | 14.77147 | 81.22045 | 34880 ft | 444 kts | 217° |
| 2026-05-09 06:18 | 14.72215 | 81.18163 | 34879 ft | 445 kts | 217° |
| 2026-05-09 06:19 | 14.67285 | 81.14295 | 34877 ft | 446 kts | 217° |
| 2026-05-09 06:19 | 14.62346 | 81.10435 | 34875 ft | 446 kts | 217° |
| 2026-05-09 06:20 | 14.57420 | 81.06563 | 34875 ft | 445 kts | 217° |
| 2026-05-09 06:20 | 14.52479 | 81.02688 | 34875 ft | 444 kts | 217° |
| 2026-05-09 06:21 | 14.47545 | 80.98820 | 34877 ft | 445 kts | 217° |
| 2026-05-09 06:21 | 14.42625 | 80.94969 | 34816 ft | 438 kts | 217° |
| 2026-05-09 06:22 | 14.40198 | 80.93071 | 34167 ft | 439 kts | 217° |
| 2026-05-09 06:22 | 14.37744 | 80.91151 | 33707 ft | 448 kts | 217° |
| 2026-05-09 06:22 | 14.35261 | 80.89207 | 33400 ft | 452 kts | 217° |
| 2026-05-09 06:22 | 14.32755 | 80.87249 | 33131 ft | 453 kts | 217° |
| 2026-05-09 06:23 | 14.30237 | 80.85282 | 32875 ft | 454 kts | 217° |
| 2026-05-09 06:23 | 14.27720 | 80.83322 | 32633 ft | 455 kts | 217° |
| 2026-05-09 06:23 | 14.25182 | 80.81351 | 32387 ft | 456 kts | 217° |
| 2026-05-09 06:23 | 14.22648 | 80.79369 | 32146 ft | 457 kts | 218° |
| 2026-05-09 06:24 | 14.20119 | 80.77386 | 31909 ft | 458 kts | 218° |
| 2026-05-09 06:24 | 14.17571 | 80.75395 | 31671 ft | 459 kts | 218° |
| 2026-05-09 06:24 | 14.15020 | 80.73404 | 31427 ft | 460 kts | 218° |
| 2026-05-09 06:24 | 14.12469 | 80.71415 | 31203 ft | 461 kts | 218° |
| 2026-05-09 06:25 | 14.09904 | 80.69425 | 30980 ft | 462 kts | 217° |
| 2026-05-09 06:25 | 14.07334 | 80.67435 | 30693 ft | 461 kts | 218° |
| 2026-05-09 06:25 | 14.04785 | 80.65453 | 30143 ft | 458 kts | 218° |
| 2026-05-09 06:25 | 14.02252 | 80.63476 | 29372 ft | 457 kts | 218° |
| 2026-05-09 06:26 | 13.99721 | 80.61494 | 28511 ft | 457 kts | 218° |
| 2026-05-09 06:26 | 13.97180 | 80.59503 | 27693 ft | 459 kts | 218° |
| 2026-05-09 06:26 | 13.94629 | 80.57511 | 26868 ft | 462 kts | 218° |
| 2026-05-09 06:26 | 13.92059 | 80.55512 | 26059 ft | 463 kts | 217° |
| 2026-05-09 06:27 | 13.89491 | 80.53517 | 25326 ft | 464 kts | 217° |
| 2026-05-09 06:27 | 13.86918 | 80.51516 | 24621 ft | 462 kts | 217° |
| 2026-05-09 06:27 | 13.84363 | 80.49529 | 23918 ft | 460 kts | 217° |
| 2026-05-09 06:27 | 13.81818 | 80.47550 | 23195 ft | 457 kts | 217° |
| 2026-05-09 06:28 | 13.79287 | 80.45584 | 22411 ft | 455 kts | 217° |
| 2026-05-09 06:28 | 13.76758 | 80.43621 | 21648 ft | 455 kts | 217° |
| 2026-05-09 06:28 | 13.74232 | 80.41659 | 20903 ft | 455 kts | 217° |
| 2026-05-09 06:28 | 13.71710 | 80.39701 | 20180 ft | 454 kts | 217° |
| 2026-05-09 06:29 | 13.69195 | 80.37749 | 19495 ft | 452 kts | 217° |
| 2026-05-09 06:29 | 13.66693 | 80.35807 | 18808 ft | 448 kts | 217° |
| 2026-05-09 06:29 | 13.64170 | 80.33979 | 18122 ft | 440 kts | 209° |
| 2026-05-09 06:29 | 13.61388 | 80.32855 | 17658 ft | 423 kts | 192° |
| 2026-05-09 06:30 | 13.58564 | 80.32277 | 17357 ft | 406 kts | 190° |
| 2026-05-09 06:30 | 13.55836 | 80.31754 | 17099 ft | 389 kts | 191° |
| 2026-05-09 06:30 | 13.53230 | 80.31200 | 16897 ft | 375 kts | 191° |
| 2026-05-09 06:30 | 13.50733 | 80.30626 | 16714 ft | 362 kts | 192° |
| 2026-05-09 06:31 | 13.48323 | 80.30052 | 16555 ft | 349 kts | 192° |
| 2026-05-09 06:31 | 13.46000 | 80.29493 | 16395 ft | 338 kts | 192° |
| 2026-05-09 06:31 | 13.43721 | 80.28947 | 15992 ft | 335 kts | 192° |
| 2026-05-09 06:31 | 13.41458 | 80.28405 | 15546 ft | 334 kts | 192° |
| 2026-05-09 06:32 | 13.39201 | 80.27860 | 15146 ft | 331 kts | 192° |
| 2026-05-09 06:32 | 13.36959 | 80.27322 | 14713 ft | 330 kts | 192° |
| 2026-05-09 06:32 | 13.34731 | 80.26788 | 14305 ft | 329 kts | 192° |
| 2026-05-09 06:33 | 13.30301 | 80.25722 | 13462 ft | 324 kts | 192° |
| 2026-05-09 06:33 | 13.28110 | 80.25194 | 12964 ft | 321 kts | 192° |
| 2026-05-09 06:33 | 13.25948 | 80.24672 | 12462 ft | 319 kts | 192° |
| 2026-05-09 06:34 | 13.21673 | 80.23641 | 11528 ft | 312 kts | 192° |
| 2026-05-09 06:34 | 13.19567 | 80.23133 | 11075 ft | 310 kts | 191° |
| 2026-05-09 06:34 | 13.17490 | 80.22631 | 10625 ft | 307 kts | 191° |
| 2026-05-09 06:34 | 13.15413 | 80.22130 | 10158 ft | 305 kts | 191° |
| 2026-05-09 06:35 | 13.13372 | 80.21617 | 9740 ft | 303 kts | 195° |
| 2026-05-09 06:35 | 13.11499 | 80.20640 | 9190 ft | 305 kts | 219° |
| 2026-05-09 06:35 | 13.10215 | 80.18935 | 8704 ft | 304 kts | 244° |
| 2026-05-09 06:35 | 13.09465 | 80.16942 | 8203 ft | 303 kts | 250° |
| 2026-05-09 06:36 | 13.08795 | 80.14903 | 7712 ft | 301 kts | 251° |
| 2026-05-09 06:36 | 13.08114 | 80.12872 | 7204 ft | 300 kts | 250° |
| 2026-05-09 06:36 | 13.07418 | 80.10863 | 6731 ft | 299 kts | 249° |
| 2026-05-09 06:36 | 13.06716 | 80.08857 | 6219 ft | 298 kts | 249° |
| 2026-05-09 06:37 | 13.06012 | 80.06870 | 5709 ft | 296 kts | 249° |
| 2026-05-09 06:37 | 13.05311 | 80.04896 | 5205 ft | 293 kts | 249° |
| 2026-05-09 06:37 | 13.04819 | 80.03578 | 4866 ft | 292 kts | 248° |
| 2026-05-09 06:37 | 13.04089 | 80.01679 | 4376 ft | 289 kts | 248° |
| 2026-05-09 06:38 | 13.03105 | 79.99123 | 3708 ft | 286 kts | 248° |
| 2026-05-09 06:38 | 13.02613 | 79.97844 | 3380 ft | 285 kts | 249° |
| 2026-05-09 06:38 | 13.01887 | 79.95954 | 2910 ft | 286 kts | 249° |
| 2026-05-09 06:38 | 13.01159 | 79.94053 | 2464 ft | 285 kts | 249° |
| 2026-05-09 06:39 | 13.00422 | 79.92208 | 2274 ft | 272 kts | 242° |
| 2026-05-09 06:39 | 12.99255 | 79.90803 | 2236 ft | 253 kts | 209° |
| 2026-05-09 06:39 | 12.97637 | 79.90336 | 2245 ft | 239 kts | 174° |
| 2026-05-09 06:39 | 12.96170 | 79.90881 | 2234 ft | 215 kts | 135° |